Time;durP1;ratioP1;P1;durP2;ratioP2;P2;SDS_P1;SDS_P2;PMS_P1;PMS_P2;Temp;Humidity;BMP_temperature;BMP_pressure;BME280_temperature;BME280_humidity;BME280_pressure;Samples;Min_cycle;Max_cycle;Signal;HPM_P1;HPM_P2
2023/06/17 00:00:14;;;;;;;2.40;1.60;;;14.10;99.90;;;;;;5055051;28;20100;-75
2023/06/17 00:02:40;;;;;;;2.15;1.80;;;14.20;99.90;;;;;;5055059;28;20064;-74
2023/06/17 00:05:06;;;;;;;2.50;1.98;;;14.20;99.90;;;;;;5054838;28;20025;-75
2023/06/17 00:07:31;;;;;;;2.25;1.88;;;14.10;99.90;;;;;;5054770;28;20083;-76
2023/06/17 00:09:57;;;;;;;2.95;1.60;;;14.20;99.90;;;;;;5053629;28;20481;-75
2023/06/17 00:12:24;;;;;;;3.10;2.40;;;14.10;99.90;;;;;;5053580;28;20033;-74
2023/06/17 00:14:51;;;;;;;4.05;2.70;;;14.10;99.90;;;;;;5056767;28;20043;-73
2023/06/17 00:17:17;;;;;;;4.68;2.83;;;14.10;99.90;;;;;;5056161;28;20078;-73
2023/06/17 00:19:43;;;;;;;4.28;3.42;;;14.00;99.90;;;;;;5056571;28;20024;-74
2023/06/17 00:22:09;;;;;;;4.65;2.20;;;14.00;99.90;;;;;;5055639;28;20036;-73
2023/06/17 00:24:35;;;;;;;4.47;2.42;;;13.90;99.90;;;;;;5054560;28;20025;-73
2023/06/17 00:27:01;;;;;;;3.00;2.45;;;14.00;99.90;;;;;;5054096;28;20124;-73
2023/06/17 00:29:27;;;;;;;4.05;2.47;;;14.00;99.90;;;;;;5056146;28;20511;-73
2023/06/17 00:31:52;;;;;;;3.95;2.85;;;13.90;99.90;;;;;;5055307;28;20033;-74
2023/06/17 00:34:18;;;;;;;4.15;2.05;;;13.90;99.90;;;;;;5055988;28;20481;-74
2023/06/17 00:36:43;;;;;;;2.25;1.95;;;13.90;99.90;;;;;;5054552;28;20528;-75
2023/06/17 00:39:09;;;;;;;3.50;2.60;;;13.80;99.90;;;;;;5052908;28;20501;-75
2023/06/17 00:41:35;;;;;;;5.10;2.30;;;13.80;99.90;;;;;;5054274;28;20109;-74
2023/06/17 00:44:01;;;;;;;3.53;1.90;;;13.80;99.90;;;;;;5054298;28;20021;-75
2023/06/17 00:46:38;;;;;;;3.15;2.47;;;13.80;99.90;;;;;;5051742;28;20033;-75
2023/06/17 00:49:05;;;;;;;5.40;2.72;;;13.80;99.90;;;;;;5054016;28;20079;-75
2023/06/17 00:51:32;;;;;;;3.95;2.15;;;14.00;99.90;;;;;;5054168;28;20089;-75
2023/06/17 00:53:59;;;;;;;3.55;2.58;;;13.90;99.90;;;;;;5053999;28;20082;-75
2023/06/17 00:56:26;;;;;;;3.50;2.88;;;14.00;99.90;;;;;;5053868;28;20056;-75
2023/06/17 00:58:54;;;;;;;5.03;2.92;;;13.90;99.90;;;;;;5053613;28;20070;-75
2023/06/17 01:01:19;;;;;;;3.67;2.80;;;13.90;99.90;;;;;;5053948;28;20100;-74
2023/06/17 01:03:46;;;;;;;3.72;2.92;;;13.90;99.90;;;;;;5053904;28;20056;-75
2023/06/17 01:06:25;;;;;;;4.20;2.13;;;13.90;99.90;;;;;;5052267;28;20514;-74
2023/06/17 01:09:02;;;;;;;4.05;2.53;;;13.90;99.90;;;;;;5052408;28;20037;-75
2023/06/17 01:11:30;;;;;;;4.50;2.58;;;13.90;99.90;;;;;;5053804;28;20032;-76
2023/06/17 01:13:57;;;;;;;3.05;2.70;;;13.90;99.90;;;;;;5053552;28;20025;-76
2023/06/17 01:16:27;;;;;;;5.88;3.17;;;13.80;99.90;;;;;;5053306;28;20108;-76
2023/06/17 01:18:53;;;;;;;5.15;3.10;;;13.80;99.90;;;;;;5053424;28;20013;-76
2023/06/17 01:21:22;;;;;;;4.07;2.53;;;13.70;99.90;;;;;;5053602;28;20107;-76
2023/06/17 01:23:52;;;;;;;5.57;2.70;;;13.70;99.90;;;;;;5053468;28;20393;-76
2023/06/17 01:26:19;;;;;;;5.32;2.88;;;13.70;99.90;;;;;;5052022;28;20541;-75
2023/06/17 01:28:45;;;;;;;2.70;2.50;;;13.70;99.90;;;;;;5051987;28;20029;-76
2023/06/17 01:31:12;;;;;;;3.78;3.00;;;13.70;99.90;;;;;;5053326;28;20108;-74
2023/06/17 01:33:40;;;;;;;4.38;2.88;;;13.70;99.90;;;;;;5053269;28;20656;-76
2023/06/17 01:36:20;;;;;;;4.00;2.80;;;13.70;99.90;;;;;;5051778;28;20074;-76
2023/06/17 01:38:58;;;;;;;4.25;2.92;;;13.70;99.90;;;;;;5053131;28;20025;-76
2023/06/17 01:41:29;;;;;;;3.15;2.65;;;13.70;99.90;;;;;;5053225;28;20021;-76
2023/06/17 01:43:57;;;;;;;4.07;3.13;;;13.70;99.90;;;;;;5053015;28;20398;-75
2023/06/17 01:46:24;;;;;;;4.88;2.95;;;13.80;99.90;;;;;;5052352;28;20112;-75
2023/06/17 01:48:53;;;;;;;3.33;2.85;;;13.80;99.90;;;;;;5052851;28;20036;-76
2023/06/17 01:51:19;;;;;;;6.15;3.33;;;13.70;99.90;;;;;;5053047;28;20662;-76
2023/06/17 01:53:45;;;;;;;6.43;2.92;;;13.70;99.90;;;;;;5051521;28;20029;-75
2023/06/17 01:56:11;;;;;;;4.35;3.10;;;13.70;99.90;;;;;;5052091;28;20021;-74
2023/06/17 01:58:38;;;;;;;6.72;2.78;;;13.70;99.90;;;;;;5051108;28;20021;-76
2023/06/17 02:01:03;;;;;;;5.72;2.67;;;13.60;99.90;;;;;;5052683;28;20028;-75
2023/06/17 02:03:29;;;;;;;8.80;2.92;;;13.60;99.90;;;;;;5052775;28;20025;-75
2023/06/17 02:05:55;;;;;;;4.10;2.65;;;13.50;99.90;;;;;;5052434;28;20025;-76
2023/06/17 02:08:22;;;;;;;3.05;2.50;;;13.50;99.90;;;;;;5051328;28;20086;-76
2023/06/17 02:10:48;;;;;;;5.43;3.15;;;13.50;99.90;;;;;;5052546;28;20029;-75
2023/06/17 02:13:14;;;;;;;4.40;2.80;;;13.50;99.90;;;;;;5051025;28;20440;-76
2023/06/17 02:15:42;;;;;;;4.10;2.33;;;13.50;99.90;;;;;;5052334;28;20017;-75
2023/06/17 02:18:08;;;;;;;4.57;2.78;;;13.50;99.90;;;;;;5052228;28;20414;-75
2023/06/17 02:20:34;;;;;;;5.35;2.70;;;13.30;99.90;;;;;;5051185;28;20021;-75
2023/06/17 02:23:00;;;;;;;3.20;2.72;;;13.30;99.90;;;;;;5051099;28;20025;-75
2023/06/17 02:25:26;;;;;;;5.60;2.90;;;13.30;99.90;;;;;;5052163;28;20025;-76
2023/06/17 02:27:51;;;;;;;3.83;2.90;;;13.30;99.90;;;;;;5051956;28;20493;-75
2023/06/17 02:30:17;;;;;;;5.20;2.65;;;13.20;99.90;;;;;;5052251;28;20024;-75
2023/06/17 02:32:43;;;;;;;2.97;2.67;;;13.20;99.90;;;;;;5052111;28;20024;-75
2023/06/17 02:35:10;;;;;;;3.08;2.47;;;13.20;99.90;;;;;;5051995;28;20032;-75
2023/06/17 02:37:36;;;;;;;3.00;2.75;;;13.20;99.90;;;;;;5050674;28;20028;-75
2023/06/17 02:40:05;;;;;;;3.70;2.83;;;13.20;99.90;;;;;;5052147;28;20025;-75
2023/06/17 02:42:31;;;;;;;3.65;2.58;;;13.20;99.90;;;;;;5051849;28;20588;-75
2023/06/17 02:44:57;;;;;;;4.05;2.85;;;13.10;99.90;;;;;;5051576;28;20100;-75
2023/06/17 02:47:22;;;;;;;3.75;2.53;;;13.10;99.90;;;;;;5051740;28;20027;-76
2023/06/17 02:49:48;;;;;;;3.35;2.95;;;13.10;99.90;;;;;;5051952;28;20040;-76
2023/06/17 02:52:13;;;;;;;2.63;2.40;;;13.00;99.90;;;;;;5051732;28;20029;-75
2023/06/17 02:54:39;;;;;;;6.43;2.78;;;12.90;99.90;;;;;;5050359;28;20461;-75
2023/06/17 02:57:05;;;;;;;3.15;2.42;;;12.90;99.90;;;;;;5051720;28;20025;-76
2023/06/17 02:59:36;;;;;;;3.53;2.50;;;12.90;99.90;;;;;;5051618;28;20052;-76
2023/06/17 03:02:01;;;;;;;3.85;2.75;;;12.90;99.90;;;;;;5050502;28;20025;-74
2023/06/17 03:04:35;;;;;;;3.90;3.13;;;12.80;99.90;;;;;;5051660;28;20474;-75
2023/06/17 03:07:05;;;;;;;6.38;3.00;;;12.80;99.90;;;;;;5050353;28;20519;-75
2023/06/17 03:09:30;;;;;;;4.28;2.80;;;12.80;99.90;;;;;;5051368;28;20029;-75
2023/06/17 03:11:58;;;;;;;5.53;3.17;;;12.80;99.90;;;;;;5051348;28;20555;-75
2023/06/17 03:14:24;;;;;;;3.88;3.30;;;12.80;99.90;;;;;;5050321;28;20040;-74
2023/06/17 03:16:50;;;;;;;4.80;3.00;;;12.80;99.90;;;;;;5051403;28;20028;-74
2023/06/17 03:19:16;;;;;;;5.07;2.75;;;12.80;99.90;;;;;;5051479;28;20029;-74
2023/06/17 03:21:43;;;;;;;13.52;3.13;;;12.80;99.90;;;;;;5051519;28;20486;-74
2023/06/17 03:24:09;;;;;;;3.70;2.70;;;12.80;99.90;;;;;;5051487;28;20025;-75
2023/06/17 03:26:35;;;;;;;3.83;3.08;;;12.90;99.90;;;;;;5051367;28;20102;-75
2023/06/17 03:29:02;;;;;;;4.22;2.83;;;12.80;99.90;;;;;;5050131;28;20021;-75
2023/06/17 03:31:29;;;;;;;3.95;2.85;;;12.80;99.90;;;;;;5051438;28;20035;-74
2023/06/17 03:33:55;;;;;;;4.18;3.05;;;12.90;99.90;;;;;;5051461;28;20064;-75
2023/06/17 03:36:30;;;;;;;3.58;2.97;;;13.30;99.90;;;;;;5051819;28;20040;-75
2023/06/17 03:38:56;;;;;;;5.30;2.90;;;13.30;99.90;;;;;;5051445;28;20540;-74
2023/06/17 03:41:26;;;;;;;5.32;3.13;;;13.30;99.90;;;;;;5050287;28;20029;-75
2023/06/17 03:43:52;;;;;;;5.65;2.92;;;13.20;99.90;;;;;;5050312;28;20051;-76
2023/06/17 03:46:18;;;;;;;6.00;2.95;;;13.20;99.90;;;;;;5052505;28;20034;-76
2023/06/17 03:48:44;;;;;;;4.63;3.03;;;13.20;99.90;;;;;;5049706;28;20021;-76
2023/06/17 03:51:11;;;;;;;5.22;3.47;;;13.30;99.90;;;;;;5051443;28;20029;-76
2023/06/17 03:53:36;;;;;;;4.15;2.85;;;13.20;99.90;;;;;;5051340;28;20056;-75
2023/06/17 03:56:02;;;;;;;3.28;2.47;;;13.30;99.90;;;;;;5049944;28;20110;-75
2023/06/17 03:58:28;;;;;;;3.45;3.03;;;13.30;99.90;;;;;;5049863;28;20024;-75
2023/06/17 04:00:54;;;;;;;3.60;2.67;;;13.30;99.90;;;;;;5051392;28;20074;-75
2023/06/17 04:03:24;;;;;;;2.80;2.38;;;13.30;99.90;;;;;;5051359;28;20412;-75
2023/06/17 04:05:51;;;;;;;5.80;3.10;;;13.30;99.90;;;;;;5049952;28;20025;-75
2023/06/17 04:08:18;;;;;;;3.63;3.15;;;13.30;99.90;;;;;;5051132;28;20029;-75
2023/06/17 04:10:44;;;;;;;2.58;2.33;;;13.40;99.90;;;;;;5051217;28;20090;-76
2023/06/17 04:13:10;;;;;;;4.70;3.33;;;13.40;99.90;;;;;;5051111;28;20025;-75
2023/06/17 04:15:35;;;;;;;4.97;3.58;;;13.50;99.90;;;;;;5051119;28;20028;-74
2023/06/17 04:18:02;;;;;;;3.38;2.90;;;13.60;99.90;;;;;;5050972;28;20017;-76
2023/06/17 04:20:29;;;;;;;5.25;2.78;;;13.60;99.90;;;;;;5052790;28;20017;-74
2023/06/17 04:22:54;;;;;;;5.20;2.97;;;13.70;99.90;;;;;;5054813;28;20039;-73
2023/06/17 04:25:20;;;;;;;2.47;2.28;;;13.80;99.90;;;;;;5054593;28;20025;-75
2023/06/17 04:27:48;;;;;;;2.97;2.38;;;13.70;99.90;;;;;;5054553;28;20397;-75
2023/06/17 04:30:15;;;;;;;3.15;2.47;;;13.80;99.90;;;;;;5053430;28;20055;-75
2023/06/17 04:32:42;;;;;;;5.40;2.65;;;13.80;99.90;;;;;;5054365;28;20067;-74
2023/06/17 04:35:09;;;;;;;3.72;2.47;;;13.90;99.90;;;;;;5053176;28;20095;-75
2023/06/17 04:37:36;;;;;;;2.85;2.53;;;14.00;99.90;;;;;;5052998;28;20017;-75
2023/06/17 04:40:08;;;;;;;3.03;2.72;;;14.10;99.90;;;;;;5053202;28;20022;-73
2023/06/17 04:42:34;;;;;;;4.07;3.03;;;14.20;99.90;;;;;;5053003;28;20476;-75
2023/06/17 04:45:00;;;;;;;3.33;2.35;;;14.40;99.90;;;;;;5052933;28;20053;-75
2023/06/17 04:47:28;;;;;;;4.28;2.28;;;14.50;99.90;;;;;;5052755;28;20025;-74
2023/06/17 04:49:54;;;;;;;4.00;2.53;;;14.60;99.90;;;;;;5054354;28;20047;-75
2023/06/17 04:52:20;;;;;;;2.13;1.92;;;14.70;99.90;;;;;;5052320;28;20599;-74
2023/06/17 04:54:49;;;;;;;4.03;2.35;;;14.80;99.90;;;;;;5052722;28;20044;-74
2023/06/17 04:57:14;;;;;;;2.63;2.10;;;15.00;99.90;;;;;;5052758;28;20024;-74
2023/06/17 04:59:40;;;;;;;4.45;2.33;;;15.20;99.90;;;;;;5054163;28;20497;-75
2023/06/17 05:02:06;;;;;;;5.28;2.53;;;15.40;99.90;;;;;;5054023;28;20025;-75
2023/06/17 05:04:31;;;;;;;3.90;3.17;;;15.50;99.90;;;;;;5053878;28;20017;-75
2023/06/17 05:06:57;;;;;;;6.55;4.40;;;15.50;99.90;;;;;;5053939;28;20385;-74
2023/06/17 05:09:23;;;;;;;6.30;3.75;;;15.80;99.90;;;;;;5053820;28;20025;-75
2023/06/17 05:11:49;;;;;;;3.88;2.65;;;15.90;99.90;;;;;;5053644;28;20033;-75
2023/06/17 05:14:15;;;;;;;3.15;2.42;;;16.10;99.90;;;;;;5053807;28;20025;-75
2023/06/17 05:16:40;;;;;;;3.28;2.83;;;16.30;99.90;;;;;;5053717;28;20080;-74
2023/06/17 05:19:06;;;;;;;6.68;2.45;;;16.50;99.90;;;;;;5053614;28;20017;-74
2023/06/17 05:21:32;;;;;;;5.40;2.60;;;16.70;99.90;;;;;;5052139;28;20021;-74
2023/06/17 05:23:57;;;;;;;6.82;2.25;;;16.70;99.30;;;;;;5053488;28;20033;-74
2023/06/17 05:26:23;;;;;;;6.90;2.65;;;16.90;99.40;;;;;;5053435;28;20079;-74
2023/06/17 05:28:48;;;;;;;4.18;3.35;;;17.20;99.90;;;;;;5053169;28;20060;-75
2023/06/17 05:31:14;;;;;;;4.47;2.22;;;18.20;99.00;;;;;;5052585;28;20025;-74
2023/06/17 05:33:40;;;;;;;4.20;3.00;;;18.60;96.20;;;;;;5052863;28;20049;-75
2023/06/17 05:36:06;;;;;;;6.22;2.38;;;19.00;94.70;;;;;;5053079;28;20096;-74
2023/06/17 05:38:32;;;;;;;3.38;2.15;;;19.40;94.60;;;;;;5052814;28;20426;-75
2023/06/17 05:40:57;;;;;;;4.07;2.72;;;19.30;94.50;;;;;;5053197;28;20047;-75
2023/06/17 05:43:27;;;;;;;2.28;2.08;;;19.30;94.70;;;;;;5051904;28;20029;-74
2023/06/17 05:45:53;;;;;;;3.05;2.50;;;19.40;94.40;;;;;;5052870;28;20021;-75
2023/06/17 05:48:18;;;;;;;4.38;2.50;;;19.40;93.60;;;;;;5053056;28;20409;-75
2023/06/17 05:50:44;;;;;;;2.58;1.90;;;19.10;93.20;;;;;;5053219;28;20052;-74
2023/06/17 05:53:10;;;;;;;4.65;1.98;;;19.00;92.80;;;;;;5051704;28;20043;-75
2023/06/17 05:55:36;;;;;;;3.92;2.25;;;19.00;93.80;;;;;;5054109;28;20437;-75
2023/06/17 05:58:02;;;;;;;2.17;1.77;;;19.00;91.90;;;;;;5053369;28;20386;-74
2023/06/17 06:00:27;;;;;;;4.07;1.63;;;19.10;90.90;;;;;;5053820;28;20071;-75
2023/06/17 06:02:53;;;;;;;2.33;2.00;;;19.40;90.50;;;;;;5053037;28;20029;-75
2023/06/17 06:05:19;;;;;;;1.77;1.40;;;19.60;90.00;;;;;;5052811;28;20111;-74
2023/06/17 06:07:44;;;;;;;2.35;1.85;;;19.80;86.20;;;;;;5052753;28;20021;-75
2023/06/17 06:10:10;;;;;;;2.20;2.00;;;20.00;86.00;;;;;;5051754;28;20056;-75
2023/06/17 06:12:37;;;;;;;7.03;2.50;;;20.00;90.70;;;;;;5051154;28;20489;-75
2023/06/17 06:15:06;;;;;;;3.55;2.25;;;20.10;90.50;;;;;;5052651;28;20067;-75
2023/06/17 06:17:33;;;;;;;4.55;2.10;;;20.20;91.80;;;;;;5052409;28;20021;-75
2023/06/17 06:19:59;;;;;;;3.05;2.20;;;20.30;92.40;;;;;;5052665;28;20020;-75
2023/06/17 06:22:24;;;;;;;2.95;2.30;;;20.50;92.60;;;;;;5052457;28;20093;-75
2023/06/17 06:24:50;;;;;;;3.55;1.98;;;20.60;92.60;;;;;;5052391;28;20029;-75
2023/06/17 06:27:16;;;;;;;2.50;2.20;;;20.80;91.30;;;;;;5052257;28;20047;-74
2023/06/17 06:29:41;;;;;;;2.50;1.90;;;20.90;90.90;;;;;;5052237;28;20032;-73
2023/06/17 06:32:07;;;;;;;2.55;2.20;;;21.30;89.80;;;;;;5052346;28;20098;-74
2023/06/17 06:34:33;;;;;;;6.82;2.20;;;21.50;86.80;;;;;;5052131;28;20079;-74
2023/06/17 06:36:59;;;;;;;3.83;1.77;;;21.60;85.30;;;;;;5051003;28;20025;-75
2023/06/17 06:39:25;;;;;;;4.20;2.13;;;21.60;85.00;;;;;;5052365;28;20444;-76
2023/06/17 06:41:52;;;;;;;2.75;2.13;;;21.70;85.50;;;;;;5050921;28;20021;-75
2023/06/17 06:44:18;;;;;;;2.42;1.80;;;21.80;83.60;;;;;;5050596;28;20083;-76
2023/06/17 06:46:44;;;;;;;2.97;2.42;;;21.90;83.20;;;;;;5050649;28;20119;-75
2023/06/17 06:49:10;;;;;;;2.75;1.90;;;21.90;81.50;;;;;;5052035;28;20025;-75
2023/06/17 06:51:36;;;;;;;2.25;1.80;;;22.00;81.70;;;;;;5059618;28;20315;-75
2023/06/17 06:54:02;;;;;;;1.80;1.63;;;21.80;81.40;;;;;;5059815;28;20020;-75
2023/06/17 06:56:28;;;;;;;2.28;1.80;;;21.90;81.40;;;;;;5051264;28;20359;-75
2023/06/17 06:58:56;;;;;;;3.47;2.55;;;21.80;81.40;;;;;;5051788;28;20028;-76
2023/06/17 07:01:22;;;;;;;1.75;1.65;;;21.90;81.60;;;;;;5050823;28;20025;-75
2023/06/17 07:03:48;;;;;;;3.58;1.92;;;21.60;81.60;;;;;;5050654;28;20029;-75
2023/06/17 07:06:14;;;;;;;2.83;1.88;;;21.70;81.60;;;;;;5050348;28;20029;-75
2023/06/17 07:08:39;;;;;;;3.05;1.88;;;21.50;81.40;;;;;;5051270;28;20031;-74
2023/06/17 07:11:05;;;;;;;2.55;1.92;;;21.40;82.10;;;;;;5051691;28;20389;-74
2023/06/17 07:13:31;;;;;;;2.05;1.70;;;21.50;81.40;;;;;;5051313;28;20025;-74
2023/06/17 07:15:57;;;;;;;2.33;1.90;;;21.60;82.70;;;;;;5051426;28;20025;-75
2023/06/17 07:18:23;;;;;;;2.50;1.98;;;21.60;82.50;;;;;;5051723;28;20024;-75
2023/06/17 07:20:48;;;;;;;2.25;1.85;;;21.60;82.20;;;;;;5051619;28;20064;-74
2023/06/17 07:23:14;;;;;;;2.53;1.83;;;21.70;82.30;;;;;;5051167;28;20032;-74
2023/06/17 07:25:40;;;;;;;3.22;2.10;;;21.80;82.80;;;;;;5051727;28;20116;-74
2023/06/17 07:28:07;;;;;;;3.40;1.52;;;22.20;81.20;;;;;;5051568;28;20029;-74
2023/06/17 07:30:33;;;;;;;2.08;1.88;;;22.60;80.30;;;;;;5051623;28;20052;-75
2023/06/17 07:32:58;;;;;;;2.53;1.65;;;23.00;78.00;;;;;;5051470;28;20059;-74
2023/06/17 07:35:24;;;;;;;1.67;1.52;;;23.00;77.60;;;;;;5050975;28;20146;-74
2023/06/17 07:37:51;;;;;;;2.75;1.88;;;23.10;76.40;;;;;;5049836;28;20021;-74
2023/06/17 07:40:16;;;;;;;7.53;2.28;;;23.10;74.80;;;;;;5050305;28;20032;-75
2023/06/17 07:42:45;;;;;;;2.10;1.90;;;22.90;74.50;;;;;;5051328;28;20398;-74
2023/06/17 07:45:11;;;;;;;13.07;2.08;;;22.90;74.20;;;;;;5049863;28;20166;-75
2023/06/17 07:47:40;;;;;;;7.85;1.75;;;22.70;73.80;;;;;;5051219;28;20044;-75
2023/06/17 07:50:08;;;;;;;9.32;2.47;;;22.60;72.80;;;;;;5049559;28;20029;-74
2023/06/17 07:52:35;;;;;;;6.80;2.08;;;22.50;73.80;;;;;;5049566;28;20555;-74
2023/06/17 07:55:04;;;;;;;15.40;2.65;;;22.50;71.90;;;;;;5050764;28;20366;-74
2023/06/17 07:57:30;;;;;;;2.25;2.05;;;22.50;74.10;;;;;;5054359;28;20518;-75
2023/06/17 07:59:55;;;;;;;2.53;1.77;;;22.30;76.30;;;;;;5055176;28;20028;-74
2023/06/17 08:02:21;;;;;;;3.65;2.40;;;22.50;75.10;;;;;;5053850;28;20440;-74
2023/06/17 08:04:49;;;;;;;2.00;1.40;;;22.80;76.00;;;;;;5053919;28;20025;-74
2023/06/17 08:07:15;;;;;;;2.25;1.67;;;23.00;73.10;;;;;;5054798;28;20024;-73
2023/06/17 08:09:41;;;;;;;3.05;1.80;;;23.20;71.90;;;;;;5053815;28;20112;-74
2023/06/17 08:12:07;;;;;;;2.33;1.90;;;23.60;70.20;;;;;;5055453;28;20104;-73
2023/06/17 08:14:33;;;;;;;2.95;2.33;;;23.70;71.90;;;;;;5054929;28;20025;-74
2023/06/17 08:16:58;;;;;;;5.57;2.10;;;23.70;69.00;;;;;;5054837;28;20045;-74
2023/06/17 08:19:24;;;;;;;1.25;1.15;;;23.50;69.00;;;;;;5054737;28;20013;-75
2023/06/17 08:21:50;;;;;;;1.23;1.13;;;23.40;66.90;;;;;;5053731;28;20032;-74
2023/06/17 08:24:24;;;;;;;2.63;1.70;;;23.60;65.60;;;;;;5054808;28;20025;-74
2023/06/17 08:26:51;;;;;;;2.17;1.90;;;23.30;67.90;;;;;;5054603;28;20028;-75
2023/06/17 08:29:17;;;;;;;2.17;1.60;;;23.00;65.40;;;;;;5054569;28;20425;-75
2023/06/17 08:31:46;;;;;;;2.28;1.50;;;23.10;69.60;;;;;;5054556;28;20486;-75
2023/06/17 08:34:13;;;;;;;3.40;2.15;;;23.40;70.00;;;;;;5053207;28;20116;-75
2023/06/17 08:36:44;;;;;;;6.03;1.77;;;23.50;67.90;;;;;;5054364;28;20485;-76
2023/06/17 08:39:10;;;;;;;1.85;1.33;;;23.70;64.50;;;;;;5054436;28;20024;-74
2023/06/17 08:41:41;;;;;;;1.75;1.33;;;24.00;62.70;;;;;;5053227;28;20394;-75
2023/06/17 08:44:09;;;;;;;1.60;1.48;;;24.00;60.80;;;;;;5054473;28;20527;-75
2023/06/17 08:46:36;;;;;;;1.85;1.30;;;24.00;62.20;;;;;;5052933;28;20036;-75
2023/06/17 08:49:02;;;;;;;2.10;1.65;;;24.10;61.50;;;;;;5054266;28;20127;-75
2023/06/17 08:51:29;;;;;;;2.92;1.48;;;24.40;62.60;;;;;;5053213;28;20029;-74
2023/06/17 08:53:55;;;;;;;2.78;1.35;;;24.70;60.10;;;;;;5052867;28;20397;-75
2023/06/17 08:56:21;;;;;;;2.58;1.70;;;24.70;57.70;;;;;;5054068;28;20025;-76
2023/06/17 08:58:47;;;;;;;3.50;1.60;;;24.50;58.40;;;;;;5053927;28;20092;-75
2023/06/17 09:01:14;;;;;;;1.40;1.10;;;24.40;58.60;;;;;;5056695;28;20021;-74
2023/06/17 09:03:41;;;;;;;1.30;1.20;;;24.10;57.80;;;;;;5055792;28;20028;-73
2023/06/17 09:06:28;;;;;;;1.33;1.23;;;23.90;58.70;;;;;;5053944;28;20052;-74
2023/06/17 09:08:55;;;;;;;3.25;1.50;;;23.80;60.00;;;;;;5053884;28;20025;-76
2023/06/17 09:11:23;;;;;;;2.35;1.30;;;23.80;60.40;;;;;;5052095;28;20516;-76
2023/06/17 09:13:53;;;;;;;1.17;1.08;;;23.70;57.80;;;;;;5053718;28;20519;-75
2023/06/17 09:16:29;;;;;;;2.65;1.88;;;23.80;58.20;;;;;;5052204;28;20083;-75
2023/06/17 09:18:55;;;;;;;1.52;1.42;;;24.00;59.10;;;;;;5055960;28;20029;-75
2023/06/17 09:21:22;;;;;;;3.72;1.67;;;24.20;56.80;;;;;;5054715;28;20021;-75
2023/06/17 09:23:55;;;;;;;1.52;1.13;;;24.30;57.40;;;;;;5054136;28;20029;-74
2023/06/17 09:26:33;;;;;;;5.28;1.48;;;24.20;55.70;;;;;;5054990;28;20025;-76
2023/06/17 09:29:04;;;;;;;2.45;1.55;;;24.20;56.10;;;;;;5053452;28;20031;-74
2023/06/17 09:31:31;;;;;;;1.10;1.00;;;24.50;57.50;;;;;;5053752;28;20032;-76
2023/06/17 09:34:02;;;;;;;1.33;1.20;;;24.60;56.50;;;;;;5053571;28;20053;-75
2023/06/17 09:36:28;;;;;;;3.55;1.60;;;24.60;55.90;;;;;;5053647;28;20100;-74
2023/06/17 09:38:54;;;;;;;1.27;1.17;;;24.40;55.60;;;;;;5052392;28;20025;-75
2023/06/17 09:41:23;;;;;;;1.35;1.25;;;24.50;56.30;;;;;;5053083;28;20025;-75
2023/06/17 09:43:53;;;;;;;1.73;1.00;;;24.70;55.80;;;;;;5051706;28;20098;-74
2023/06/17 09:46:35;;;;;;;2.50;1.35;;;24.90;55.10;;;;;;5051660;28;20025;-75
2023/06/17 09:49:12;;;;;;;1.88;1.33;;;24.70;53.60;;;;;;5053076;28;20021;-77
2023/06/17 09:51:39;;;;;;;3.35;1.45;;;24.80;54.30;;;;;;5051870;28;20033;-76
2023/06/17 09:54:06;;;;;;;1.30;1.13;;;24.70;54.40;;;;;;5052923;28;20104;-75
2023/06/17 09:56:33;;;;;;;2.38;1.25;;;24.80;54.10;;;;;;5051650;28;20025;-75
2023/06/17 09:58:59;;;;;;;1.08;1.08;;;24.80;54.30;;;;;;5051816;28;20108;-77
2023/06/17 10:01:39;;;;;;;1.20;1.10;;;24.60;53.00;;;;;;5052430;28;20100;-73
2023/06/17 10:04:07;;;;;;;2.10;1.17;;;24.40;53.90;;;;;;5051371;28;20075;-74
2023/06/17 10:06:39;;;;;;;1.67;1.33;;;24.20;54.10;;;;;;5050697;28;20027;-75
2023/06/17 10:09:06;;;;;;;3.00;1.20;;;24.00;53.40;;;;;;5052615;28;20029;-74
2023/06/17 10:11:34;;;;;;;1.48;1.33;;;24.00;54.10;;;;;;5051174;28;20029;-75
2023/06/17 10:14:10;;;;;;;1.98;1.23;;;24.20;54.10;;;;;;5052533;28;20029;-75
2023/06/17 10:16:41;;;;;;;1.77;1.67;;;24.30;53.70;;;;;;5051283;28;20024;-74
2023/06/17 10:19:09;;;;;;;1.75;1.40;;;24.20;54.50;;;;;;5051493;28;20021;-74
2023/06/17 10:21:39;;;;;;;1.75;1.33;;;24.30;56.20;;;;;;5052577;28;20021;-75
2023/06/17 10:24:05;;;;;;;2.17;1.75;;;24.60;56.00;;;;;;5052694;28;20035;-75
2023/06/17 10:26:31;;;;;;;1.25;1.13;;;24.90;56.80;;;;;;5052460;28;20032;-74
2023/06/17 10:29:07;;;;;;;4.57;1.40;;;25.20;55.50;;;;;;5052290;28;20029;-76
2023/06/17 10:31:38;;;;;;;1.80;1.50;;;25.00;54.30;;;;;;5051524;28;20108;-75
2023/06/17 10:34:05;;;;;;;1.30;1.15;;;24.80;53.40;;;;;;5052681;28;20083;-75
2023/06/17 10:36:35;;;;;;;2.15;0.80;;;24.90;55.20;;;;;;5052554;28;20032;-75
2023/06/17 10:39:10;;;;;;;1.67;1.20;;;25.10;52.70;;;;;;5052286;28;20025;-74
2023/06/17 10:41:52;;;;;;;1.30;1.20;;;25.30;53.00;;;;;;5051075;28;20075;-76
2023/06/17 10:44:28;;;;;;;1.70;1.08;;;25.70;52.70;;;;;;5052211;28;20024;-75
2023/06/17 10:46:55;;;;;;;1.40;1.30;;;25.60;50.10;;;;;;5052034;28;20055;-75
2023/06/17 10:49:21;;;;;;;1.48;1.38;;;25.50;49.00;;;;;;5051765;28;20043;-75
2023/06/17 10:51:47;;;;;;;1.40;1.30;;;25.20;49.00;;;;;;5052031;28;20029;-75
2023/06/17 10:54:13;;;;;;;6.00;1.75;;;24.90;50.10;;;;;;5050682;28;20115;-76
2023/06/17 10:56:52;;;;;;;1.77;1.45;;;24.70;51.40;;;;;;5052033;28;20049;-75
2023/06/17 10:59:28;;;;;;;1.33;1.23;;;24.60;52.30;;;;;;5050615;28;20056;-75
2023/06/17 11:02:01;;;;;;;2.90;1.45;;;24.50;51.30;;;;;;5051838;28;20014;-75
2023/06/17 11:04:31;;;;;;;1.70;1.60;;;24.40;50.90;;;;;;5051820;28;20500;-75
2023/06/17 11:06:58;;;;;;;1.38;1.27;;;24.40;51.70;;;;;;5051934;28;20043;-75
2023/06/17 11:09:27;;;;;;;2.03;1.60;;;24.60;50.50;;;;;;5050463;28;20032;-76
2023/06/17 11:11:54;;;;;;;1.67;1.58;;;24.50;50.50;;;;;;5051902;28;20029;-75
2023/06/17 11:14:21;;;;;;;2.65;1.33;;;24.50;50.10;;;;;;5051984;28;20094;-75
2023/06/17 11:16:46;;;;;;;1.40;1.30;;;24.40;50.00;;;;;;5051661;28;20052;-74
2023/06/17 11:19:13;;;;;;;1.27;1.17;;;24.60;51.20;;;;;;5051721;28;20060;-75
2023/06/17 11:21:39;;;;;;;3.60;1.30;;;24.80;49.60;;;;;;5050518;28;20590;-74
2023/06/17 11:24:05;;;;;;;1.50;1.23;;;25.00;49.40;;;;;;5051899;28;20033;-75
2023/06/17 11:26:31;;;;;;;2.22;1.60;;;25.10;50.30;;;;;;5050290;28;20032;-75
2023/06/17 11:28:57;;;;;;;2.10;1.90;;;25.20;50.60;;;;;;5052372;28;20032;-75
2023/06/17 11:31:25;;;;;;;1.38;1.20;;;25.10;49.90;;;;;;5055793;28;20033;-77
2023/06/17 11:34:00;;;;;;;2.03;1.20;;;25.20;49.70;;;;;;5054480;28;20021;-74
2023/06/17 11:36:26;;;;;;;;;;;25.40;49.70;;;;;;5054817;28;20066;-75
2023/06/17 11:38:54;;;;;;;1.95;1.42;;;25.50;48.10;;;;;;5055491;28;19999;-75
2023/06/17 11:41:21;;;;;;;2.03;1.23;;;25.60;48.70;;;;;;5055661;28;20033;-74
2023/06/17 11:43:48;;;;;;;1.90;0.90;;;25.90;47.30;;;;;;5054328;28;20024;-76
2023/06/17 11:46:20;;;;;;;2.28;1.60;;;26.20;48.00;;;;;;5055364;28;20052;-75
2023/06/17 11:48:46;;;;;;;1.88;1.33;;;26.20;46.80;;;;;;5055410;28;20025;-75
2023/06/17 11:51:16;;;;;;;3.13;1.50;;;26.10;46.60;;;;;;5055505;28;20017;-75
2023/06/17 11:53:44;;;;;;;2.08;1.33;;;25.80;46.90;;;;;;5055245;28;20035;-76
2023/06/17 11:56:10;;;;;;;1.30;1.20;;;25.80;47.30;;;;;;5055292;28;20025;-75
2023/06/17 11:58:38;;;;;;;2.65;1.17;;;26.00;48.40;;;;;;5053878;28;20025;-75
2023/06/17 12:01:05;;;;;;;2.25;1.75;;;26.30;47.90;;;;;;5055326;28;20025;-74
2023/06/17 12:03:31;;;;;;;1.70;1.60;;;26.20;47.40;;;;;;5055134;28;20043;-74
2023/06/17 12:05:57;;;;;;;2.08;1.85;;;26.00;47.30;;;;;;5053537;28;20437;-75
2023/06/17 12:08:35;;;;;;;1.60;1.50;;;25.80;48.20;;;;;;5053738;28;20055;-76
2023/06/17 12:11:22;;;;;;;1.85;1.35;;;25.60;48.00;;;;;;5055170;28;20397;-76
2023/06/17 12:13:50;;;;;;;1.65;1.50;;;25.30;47.40;;;;;;5054828;28;20029;-74
2023/06/17 12:16:32;;;;;;;2.15;1.23;;;25.20;49.60;;;;;;5053473;28;20029;-75
2023/06/17 12:18:58;;;;;;;1.55;1.45;;;25.20;50.10;;;;;;5053596;28;20017;-75
2023/06/17 12:21:24;;;;;;;1.73;1.55;;;25.40;49.50;;;;;;5054838;28;20482;-75
2023/06/17 12:23:53;;;;;;;2.58;1.73;;;25.50;49.00;;;;;;5054895;28;20096;-76
2023/06/17 12:26:19;;;;;;;1.42;1.30;;;25.50;46.90;;;;;;5054592;28;20074;-74
2023/06/17 12:28:45;;;;;;;1.95;1.73;;;25.60;46.80;;;;;;5054512;28;20040;-75
2023/06/17 12:31:12;;;;;;;1.30;1.25;;;25.70;46.70;;;;;;5054708;28;20021;-75
2023/06/17 12:33:38;;;;;;;1.27;1.08;;;25.70;46.30;;;;;;5054690;28;20046;-75
2023/06/17 12:36:06;;;;;;;2.53;1.55;;;25.70;45.80;;;;;;5054444;28;20029;-76
2023/06/17 12:38:32;;;;;;;1.60;1.50;;;25.80;46.80;;;;;;5053368;28;20401;-75
2023/06/17 12:41:02;;;;;;;2.03;1.45;;;25.90;45.60;;;;;;5053966;28;20021;-74
2023/06/17 12:43:29;;;;;;;2.55;1.50;;;26.00;46.90;;;;;;5053111;28;20028;-74
2023/06/17 12:45:56;;;;;;;3.10;1.67;;;26.30;48.30;;;;;;5054181;28;20021;-74
2023/06/17 12:48:22;;;;;;;3.10;1.50;;;26.40;45.20;;;;;;5052964;28;20025;-74